createdAt,value
2023-03-19T00:01:05.022Z,4.16
2023-03-19T00:03:42.895Z,4.16
2023-03-19T00:06:11.029Z,4.13
2023-03-19T00:08:39.084Z,4.12
2023-03-19T00:11:11.722Z,4.11
2023-03-19T00:13:40.873Z,4.09
2023-03-19T00:16:09.098Z,4.09
2023-03-19T00:18:37.434Z,4.08
2023-03-19T00:21:06.149Z,4.07
2023-03-19T00:23:34.939Z,4.06
2023-03-19T00:26:04.065Z,4.05
2023-03-19T00:28:32.361Z,4.05
2023-03-19T00:31:10.706Z,4.03
2023-03-19T00:33:39.265Z,4.01
2023-03-19T00:36:08.160Z,3.99
2023-03-19T00:38:36.777Z,3.95
2023-03-19T00:41:06.265Z,3.94
2023-03-19T00:43:34.915Z,3.90
2023-03-19T00:46:03.521Z,3.88
2023-03-19T00:48:32.058Z,3.85
2023-03-19T00:51:09.598Z,3.82
2023-03-19T00:53:42.987Z,3.79
2023-03-19T00:56:13.648Z,3.77
2023-03-19T00:58:42.129Z,3.72
2023-03-19T01:01:13.047Z,3.68
2023-03-19T01:03:42.008Z,3.66
2023-03-19T01:06:10.393Z,3.64
2023-03-19T01:08:38.893Z,3.62
2023-03-19T01:11:09.885Z,3.61
2023-03-19T01:13:38.922Z,3.59
2023-03-19T01:16:07.579Z,3.59
2023-03-19T01:18:35.879Z,3.56
2023-03-19T01:21:05.166Z,3.55
2023-03-19T01:23:38.779Z,3.53
2023-03-19T01:26:07.399Z,3.51
2023-03-19T01:28:35.979Z,3.48
2023-03-19T01:31:08.416Z,3.46
2023-03-19T01:34:06.624Z,3.44
2023-03-19T01:36:49.640Z,3.43
2023-03-19T01:39:24.089Z,3.41
2023-03-19T01:41:52.765Z,3.41
2023-03-19T01:44:37.599Z,3.37
2023-03-19T01:47:36.178Z,3.34
2023-03-19T01:50:43.776Z,3.33
2023-03-19T01:53:32.738Z,3.30
2023-03-19T01:56:20.274Z,3.27
2023-03-19T01:59:27.949Z,3.24
2023-03-19T02:02:31.717Z,3.20
2023-03-19T02:05:10.865Z,3.16
2023-03-19T02:07:42.637Z,3.13
2023-03-19T02:10:15.161Z,3.09
2023-03-19T02:12:45.009Z,3.05
2023-03-19T02:15:13.254Z,3.03
2023-03-19T02:17:42.808Z,3.01
2023-03-19T02:20:21.408Z,2.97
2023-03-19T02:23:06.017Z,2.95
2023-03-19T02:25:46.281Z,2.93
2023-03-19T02:28:17.514Z,2.90
2023-03-19T02:30:46.517Z,2.88
2023-03-19T02:36:17.405Z,2.82
2023-03-19T02:38:48.113Z,2.79
2023-03-19T02:41:16.234Z,2.78
2023-03-19T02:43:44.449Z,2.76
2023-03-19T02:46:13.928Z,2.76
2023-03-19T02:48:42.461Z,2.74
2023-03-19T02:51:10.768Z,2.73
2023-03-19T02:53:39.125Z,2.71
2023-03-19T02:56:07.570Z,2.69
2023-03-19T02:58:35.797Z,2.65
2023-03-19T03:01:04.538Z,2.63
2023-03-19T03:03:32.953Z,2.61
2023-03-19T03:06:01.123Z,2.58
2023-03-19T03:08:29.295Z,2.56
2023-03-19T03:10:57.758Z,2.53
2023-03-19T03:13:26.027Z,2.50
2023-03-19T03:15:54.123Z,2.47
2023-03-19T03:18:22.609Z,2.45
2023-03-19T03:20:50.938Z,2.43
2023-03-19T03:23:20.506Z,2.42
2023-03-19T03:25:52.968Z,2.40
2023-03-19T03:28:21.182Z,2.39
2023-03-19T03:30:49.290Z,2.35
2023-03-19T03:33:17.523Z,2.35
2023-03-19T03:35:46.485Z,2.33
2023-03-19T03:38:14.740Z,2.32
2023-03-19T03:40:43.572Z,2.30
2023-03-19T03:43:11.641Z,2.28
2023-03-19T03:45:39.837Z,2.26
2023-03-19T03:48:09.556Z,2.25
2023-03-19T03:50:37.699Z,2.24
2023-03-19T03:53:08.902Z,2.21
2023-03-19T03:55:37.405Z,2.19
2023-03-19T03:58:06.561Z,2.16
2023-03-19T04:05:20.501Z,2.07
2023-03-19T04:07:48.780Z,2.05
2023-03-19T04:10:17.076Z,2.04
2023-03-19T04:12:46.092Z,2.02
2023-03-19T04:15:14.558Z,2.00
2023-03-19T04:17:44.426Z,1.98
2023-03-19T04:20:14.403Z,1.96
2023-03-19T04:22:42.691Z,1.94
2023-03-19T04:25:11.406Z,1.91
2023-03-19T04:27:39.860Z,1.89
2023-03-19T04:34:37.600Z,1.83
2023-03-19T04:37:06.349Z,1.79
2023-03-19T04:39:36.160Z,1.75
2023-03-19T04:42:04.634Z,1.72
2023-03-19T04:44:37.743Z,1.70
2023-03-19T04:47:06.078Z,1.67
2023-03-19T04:49:42.762Z,1.64
2023-03-19T04:52:11.032Z,1.62
2023-03-19T04:54:39.194Z,1.58
2023-03-19T04:57:07.896Z,1.56
2023-03-19T04:59:38.569Z,1.53
2023-03-19T05:02:07.112Z,1.53
2023-03-19T05:04:37.517Z,1.54
2023-03-19T05:07:08.550Z,1.56
2023-03-19T05:09:37.974Z,1.59
2023-03-19T05:12:06.939Z,1.59
2023-03-19T05:14:39.780Z,1.51
2023-03-19T05:17:15.726Z,1.47
2023-03-19T05:20:07.301Z,1.51
2023-03-19T05:22:35.680Z,1.61
2023-03-19T05:25:04.296Z,1.78
2023-03-19T05:27:33.067Z,1.94
2023-03-19T05:30:11.039Z,2.00
2023-03-19T05:32:41.898Z,2.00
2023-03-19T05:35:15.506Z,2.06
2023-03-19T05:37:43.919Z,2.30
2023-03-19T05:40:13.404Z,2.68
2023-03-19T05:42:42.887Z,3.07
2023-03-19T05:45:12.784Z,3.48
2023-03-19T05:47:50.340Z,3.94
2023-03-19T05:50:19.054Z,4.25
2023-03-19T05:53:05.412Z,4.60
2023-03-19T05:55:34.836Z,4.84
2023-03-19T05:58:07.819Z,4.97
2023-03-19T06:00:36.919Z,5.04
2023-03-19T06:03:06.671Z,5.28
2023-03-19T06:05:42.992Z,5.81
2023-03-19T06:08:30.558Z,6.41
2023-03-19T06:11:19.227Z,6.87
2023-03-19T06:13:51.867Z,7.39
2023-03-19T06:16:21.074Z,7.79
2023-03-19T06:18:53.985Z,8.11
2023-03-19T06:21:22.290Z,8.39
2023-03-19T06:23:51.511Z,8.71
2023-03-19T06:26:26.566Z,9.00
2023-03-19T06:28:57.559Z,9.31
2023-03-19T06:31:27.696Z,9.64
2023-03-19T06:34:01.670Z,9.96
2023-03-19T06:36:39.886Z,10.28
2023-03-19T06:39:10.528Z,10.59
2023-03-19T06:41:38.749Z,10.94
2023-03-19T06:44:13.494Z,11.33
2023-03-19T06:46:42.279Z,11.65
2023-03-19T06:49:10.672Z,11.90
2023-03-19T06:51:38.772Z,12.22
2023-03-19T06:54:07.282Z,12.54
2023-03-19T06:56:35.513Z,12.71
2023-03-19T06:59:04.148Z,12.71
2023-03-19T07:01:32.928Z,12.55
2023-03-19T07:04:01.098Z,12.43
2023-03-19T07:06:30.223Z,12.40
2023-03-19T07:09:16.460Z,12.27
2023-03-19T07:11:51.048Z,12.25
2023-03-19T07:14:19.472Z,12.34
2023-03-19T07:16:47.641Z,12.46
2023-03-19T07:19:16.428Z,12.48
2023-03-19T07:21:44.819Z,12.71
2023-03-19T07:24:13.030Z,13.04
2023-03-19T07:26:42.497Z,13.43
2023-03-19T07:29:11.379Z,13.65
2023-03-19T07:31:39.946Z,14.00
2023-03-19T07:34:08.545Z,14.40
2023-03-19T07:36:37.052Z,14.69
2023-03-19T07:39:05.579Z,14.88
2023-03-19T07:41:33.619Z,15.00
2023-03-19T07:44:03.014Z,14.97
2023-03-19T07:46:32.540Z,14.99
2023-03-19T07:49:01.076Z,15.21
2023-03-19T07:51:29.415Z,15.48
2023-03-19T07:53:57.472Z,15.66
2023-03-19T07:56:25.955Z,15.70
2023-03-19T07:58:54.401Z,15.67
2023-03-19T08:01:22.513Z,15.76
2023-03-19T08:03:51.151Z,15.78
2023-03-19T08:06:22.039Z,15.82
2023-03-19T08:08:50.728Z,15.82
2023-03-19T08:11:19.726Z,15.97
2023-03-19T08:13:48.050Z,15.96
2023-03-19T08:16:16.006Z,16.14
2023-03-19T08:18:43.992Z,16.16
2023-03-19T08:21:12.330Z,16.13
2023-03-19T08:23:40.477Z,16.20
2023-03-19T08:26:08.426Z,16.15
2023-03-19T08:28:37.454Z,16.14
2023-03-19T08:31:13.124Z,16.02
2023-03-19T08:33:41.653Z,15.83
2023-03-19T08:36:12.252Z,15.84
2023-03-19T08:38:40.558Z,15.75
2023-03-19T08:41:09.751Z,15.64
2023-03-19T08:43:37.897Z,15.56
2023-03-19T08:46:06.646Z,15.76
2023-03-19T08:48:35.979Z,15.72
2023-03-19T08:51:04.227Z,15.91
2023-03-19T08:53:33.139Z,16.19
2023-03-19T08:56:02.222Z,16.37
2023-03-19T08:58:30.950Z,16.51
2023-03-19T09:01:08.900Z,16.53
2023-03-19T09:03:37.451Z,16.48
2023-03-19T09:06:07.203Z,16.19
2023-03-19T09:08:36.293Z,15.98
2023-03-19T09:11:05.928Z,15.97
2023-03-19T09:13:34.571Z,15.67
2023-03-19T09:16:02.835Z,15.59
2023-03-19T09:18:31.498Z,15.58
2023-03-19T09:20:59.980Z,15.63
2023-03-19T09:23:28.589Z,15.58
2023-03-19T09:25:57.072Z,15.57
2023-03-19T09:28:25.760Z,15.50
2023-03-19T09:30:54.434Z,15.39
2023-03-19T09:33:22.791Z,15.18
2023-03-19T09:35:53.867Z,15.13
2023-03-19T09:38:24.169Z,15.16
2023-03-19T09:40:59.737Z,15.20
2023-03-19T09:43:47.221Z,15.28
2023-03-19T09:46:23.827Z,15.39
2023-03-19T09:49:03.195Z,15.64
2023-03-19T09:51:43.694Z,16.07
2023-03-19T09:54:39.250Z,16.48
2023-03-19T09:57:10.036Z,16.72
2023-03-19T09:59:40.794Z,16.92
2023-03-19T10:02:41.955Z,17.12
2023-03-19T10:05:25.963Z,17.21
2023-03-19T10:08:19.811Z,17.41
2023-03-19T10:10:56.252Z,17.64
2023-03-19T10:13:30.413Z,17.84
2023-03-19T10:16:01.477Z,17.95
2023-03-19T10:18:36.180Z,18.11
2023-03-19T10:21:11.985Z,18.36
2023-03-19T10:23:46.989Z,18.49
2023-03-19T10:26:21.703Z,18.45
2023-03-19T10:29:20.751Z,18.36
2023-03-19T10:32:21.104Z,18.52
2023-03-19T10:34:53.317Z,18.65
2023-03-19T10:37:28.036Z,18.52
2023-03-19T10:40:00.096Z,18.40
2023-03-19T10:42:49.890Z,18.34
2023-03-19T10:45:30.119Z,18.13
2023-03-19T10:47:59.976Z,17.83
2023-03-19T10:51:01.604Z,17.61
2023-03-19T10:53:34.751Z,17.73
2023-03-19T10:56:26.804Z,17.71
2023-03-19T10:59:07.626Z,17.48
2023-03-19T11:04:34.630Z,17.17
2023-03-19T11:07:08.860Z,16.78
2023-03-19T11:09:38.007Z,16.72
2023-03-19T11:12:29.524Z,16.71
2023-03-19T11:14:58.383Z,16.58
2023-03-19T11:17:28.018Z,16.48
2023-03-19T11:19:57.926Z,16.36
2023-03-19T11:22:28.144Z,16.21
2023-03-19T11:25:13.897Z,16.22
2023-03-19T11:27:43.673Z,16.04
2023-03-19T11:30:18.143Z,15.92
2023-03-19T11:33:04.804Z,15.84
2023-03-19T11:35:36.079Z,15.77
2023-03-19T11:38:05.130Z,15.82
2023-03-19T11:40:52.728Z,15.95
2023-03-19T11:43:21.162Z,16.07
2023-03-19T11:45:52.290Z,16.23
2023-03-19T11:48:35.389Z,16.34
2023-03-19T11:51:12.624Z,16.35
2023-03-19T11:53:49.864Z,16.45
2023-03-19T11:56:23.271Z,16.49
2023-03-19T11:59:09.860Z,16.58
2023-03-19T12:01:47.025Z,16.70
2023-03-19T12:04:21.279Z,16.57
2023-03-19T12:07:08.110Z,16.47
2023-03-19T12:09:49.684Z,16.29
2023-03-19T12:12:17.675Z,16.29
2023-03-19T12:14:45.776Z,16.28
2023-03-19T12:17:22.774Z,16.23
2023-03-19T12:19:50.739Z,16.17
2023-03-19T12:22:37.106Z,16.14
2023-03-19T12:25:31.244Z,16.16
2023-03-19T12:28:05.226Z,16.27
2023-03-19T12:30:33.418Z,16.48
2023-03-19T12:33:11.074Z,16.47
2023-03-19T12:35:39.951Z,16.36
2023-03-19T12:38:19.606Z,16.30
2023-03-19T12:40:50.701Z,16.21
2023-03-19T12:43:22.045Z,16.24
2023-03-19T12:45:58.194Z,16.09
2023-03-19T12:48:28.860Z,16.00
2023-03-19T12:51:00.158Z,15.85
2023-03-19T12:53:36.338Z,15.80
2023-03-19T12:56:10.572Z,15.72
2023-03-19T12:58:47.870Z,15.68
2023-03-19T13:01:37.549Z,15.63
2023-03-19T13:04:14.674Z,15.61
2023-03-19T13:06:52.504Z,15.69
2023-03-19T13:09:27.073Z,15.81
2023-03-19T13:12:02.296Z,15.96
2023-03-19T13:14:45.398Z,15.98
2023-03-19T13:17:24.120Z,16.09
2023-03-19T13:19:57.124Z,16.14
2023-03-19T13:22:27.786Z,16.22
2023-03-19T13:24:57.381Z,16.17
2023-03-19T13:27:32.940Z,16.04
2023-03-19T13:30:07.494Z,15.91
2023-03-19T13:32:41.501Z,15.74
2023-03-19T13:35:24.483Z,15.53
2023-03-19T13:37:57.345Z,15.39
2023-03-19T13:40:46.138Z,15.36
2023-03-19T13:43:29.567Z,15.27
2023-03-19T13:46:11.965Z,15.22
2023-03-19T13:48:45.855Z,15.23
2023-03-19T13:51:19.905Z,15.22
2023-03-19T13:54:12.940Z,15.21
2023-03-19T13:57:01.356Z,15.23
2023-03-19T13:59:31.420Z,15.23
2023-03-19T14:02:00.499Z,15.21
2023-03-19T14:04:31.146Z,15.17
2023-03-19T14:07:19.361Z,15.27
2023-03-19T14:09:51.652Z,15.35
2023-03-19T14:12:20.239Z,15.39
2023-03-19T14:15:07.354Z,15.40
2023-03-19T14:17:42.760Z,15.38
2023-03-19T14:20:12.568Z,15.39
2023-03-19T14:22:40.865Z,15.49
2023-03-19T14:25:18.967Z,15.48
2023-03-19T14:27:48.289Z,15.38
2023-03-19T14:30:26.558Z,15.27
2023-03-19T14:32:55.940Z,15.22
2023-03-19T14:35:25.468Z,14.99
2023-03-19T14:37:54.322Z,14.77
2023-03-19T14:40:23.925Z,14.65
2023-03-19T14:42:57.992Z,14.55
2023-03-19T14:45:40.109Z,14.51
2023-03-19T14:48:38.458Z,14.53
2023-03-19T14:51:09.625Z,14.59
2023-03-19T14:53:41.736Z,14.59
2023-03-19T14:56:19.067Z,14.60
2023-03-19T14:58:51.164Z,14.55
2023-03-19T15:01:19.965Z,14.46
2023-03-19T15:03:53.250Z,14.37
2023-03-19T15:06:21.955Z,14.27
2023-03-19T15:08:50.218Z,14.13
2023-03-19T15:11:36.396Z,14.07
2023-03-19T15:14:04.417Z,13.94
2023-03-19T15:16:38.756Z,13.85
2023-03-19T15:19:11.212Z,13.75
2023-03-19T15:21:39.816Z,13.68
2023-03-19T15:24:14.775Z,13.63
2023-03-19T15:26:43.582Z,13.57
2023-03-19T15:29:13.598Z,13.50
2023-03-19T15:31:51.063Z,13.44
2023-03-19T15:34:23.087Z,13.40
2023-03-19T15:37:15.291Z,13.40
2023-03-19T15:39:49.136Z,13.41
2023-03-19T15:42:21.079Z,13.39
2023-03-19T15:44:55.529Z,13.37
2023-03-19T15:47:32.258Z,13.34
2023-03-19T15:50:12.651Z,13.30
2023-03-19T15:52:46.298Z,13.23
2023-03-19T15:55:16.769Z,13.13
2023-03-19T15:57:45.616Z,13.03
2023-03-19T16:00:18.229Z,12.98
2023-03-19T16:02:50.476Z,12.92
2023-03-19T16:05:30.926Z,12.88
2023-03-19T16:08:16.919Z,12.83
2023-03-19T16:10:47.566Z,12.78
2023-03-19T16:13:25.833Z,12.70
2023-03-19T16:16:00.947Z,12.63
2023-03-19T16:18:40.590Z,12.57
2023-03-19T16:21:34.030Z,12.48
2023-03-19T16:24:14.036Z,12.38
2023-03-19T16:26:46.847Z,12.27
2023-03-19T16:29:20.906Z,12.16
2023-03-19T16:31:52.655Z,12.03
2023-03-19T16:34:39.576Z,11.91
2023-03-19T16:37:41.089Z,11.77
2023-03-19T16:40:12.270Z,11.61
2023-03-19T16:42:56.075Z,11.42
2023-03-19T16:45:31.691Z,11.18
2023-03-19T16:48:03.501Z,11.00
2023-03-19T16:50:40.373Z,10.85
2023-03-19T16:53:22.414Z,10.70
2023-03-19T16:55:54.199Z,10.54
2023-03-19T16:58:31.927Z,10.39
2023-03-19T17:01:01.287Z,10.26
2023-03-19T17:03:30.364Z,10.15
2023-03-19T17:05:58.724Z,10.03
2023-03-19T17:08:26.924Z,9.91
2023-03-19T17:10:55.663Z,9.79
2023-03-19T17:13:30.186Z,9.67
2023-03-19T17:16:02.869Z,9.54
2023-03-19T17:18:36.629Z,9.42
2023-03-19T17:21:16.013Z,9.29
2023-03-19T17:23:44.334Z,9.16
2023-03-19T17:26:17.424Z,9.03
2023-03-19T17:28:46.343Z,8.91
2023-03-19T17:31:28.811Z,8.81
2023-03-19T17:34:16.781Z,8.71
2023-03-19T17:36:51.405Z,8.59
2023-03-19T17:39:20.002Z,8.49
2023-03-19T17:41:48.383Z,8.38
2023-03-19T17:44:16.597Z,8.25
2023-03-19T17:46:47.562Z,8.14
2023-03-19T17:49:29.158Z,8.05
2023-03-19T17:51:58.130Z,7.94
2023-03-19T17:54:27.335Z,7.87
2023-03-19T17:56:56.244Z,7.78
2023-03-19T17:59:25.944Z,7.69
2023-03-19T18:01:54.154Z,7.57
2023-03-19T18:04:22.826Z,7.47
2023-03-19T18:06:56.120Z,7.35
2023-03-19T18:09:28.702Z,7.28
2023-03-19T18:11:57.842Z,7.23
2023-03-19T18:14:26.134Z,7.18
2023-03-19T18:16:56.115Z,7.11
2023-03-19T18:19:33.648Z,7.05
2023-03-19T18:22:02.146Z,6.98
2023-03-19T18:24:30.385Z,6.94
2023-03-19T18:26:58.361Z,6.90
2023-03-19T18:29:26.425Z,6.86
2023-03-19T18:31:54.879Z,6.81
2023-03-19T18:34:23.090Z,6.75
2023-03-19T18:36:52.204Z,6.71
2023-03-19T18:39:21.498Z,6.68
2023-03-19T18:41:49.776Z,6.62
2023-03-19T18:44:19.254Z,6.57
2023-03-19T18:46:47.377Z,6.52
2023-03-19T18:49:26.770Z,6.47
2023-03-19T18:52:02.664Z,6.45
2023-03-19T18:54:32.538Z,6.41
2023-03-19T18:57:02.030Z,6.38
2023-03-19T18:59:33.248Z,6.34
2023-03-19T19:04:36.594Z,6.30
2023-03-19T19:07:05.075Z,6.27
2023-03-19T19:09:33.323Z,6.25
2023-03-19T19:12:02.252Z,6.22
2023-03-19T19:14:30.898Z,6.19
2023-03-19T19:16:59.490Z,6.16
2023-03-19T19:19:27.931Z,6.13
2023-03-19T19:21:56.105Z,6.09
2023-03-19T19:24:24.520Z,6.06
2023-03-19T19:26:54.528Z,6.01
2023-03-19T19:29:28.571Z,5.98
2023-03-19T19:31:57.252Z,5.94
2023-03-19T19:34:25.304Z,5.90
2023-03-19T19:36:57.734Z,5.88
2023-03-19T19:39:27.115Z,5.84
2023-03-19T19:41:56.224Z,5.81
2023-03-19T19:44:24.349Z,5.76
2023-03-19T19:46:54.731Z,5.72
2023-03-19T19:49:23.295Z,5.66
2023-03-19T19:51:51.481Z,5.61
2023-03-19T19:54:19.484Z,5.54
2023-03-19T19:56:47.692Z,5.46
2023-03-19T19:59:16.193Z,5.39
2023-03-19T20:01:44.516Z,5.34
2023-03-19T20:04:14.821Z,5.31
2023-03-19T20:06:43.145Z,5.29
2023-03-19T20:09:11.299Z,5.25
2023-03-19T20:11:39.605Z,5.17
2023-03-19T20:14:12.241Z,5.09
2023-03-19T20:16:40.365Z,5.00
2023-03-19T20:19:19.478Z,4.92
2023-03-19T20:21:47.866Z,4.84
2023-03-19T20:24:15.873Z,4.76
2023-03-19T20:26:44.007Z,4.68
2023-03-19T20:29:16.172Z,4.60
2023-03-19T20:31:46.017Z,4.51
2023-03-19T20:34:22.516Z,4.46
2023-03-19T20:36:54.105Z,4.40
2023-03-19T20:39:22.534Z,4.31
2023-03-19T20:41:51.702Z,4.22
2023-03-19T20:44:22.682Z,4.16
2023-03-19T20:46:50.884Z,4.10
2023-03-19T20:49:19.047Z,4.03
2023-03-19T20:51:47.046Z,3.93
2023-03-19T20:54:15.036Z,3.86
2023-03-19T20:56:45.927Z,3.80
2023-03-19T20:59:15.499Z,3.74
2023-03-19T21:01:43.761Z,3.66
2023-03-19T21:04:18.922Z,3.61
2023-03-19T21:06:53.451Z,3.56
2023-03-19T21:09:24.075Z,3.51
2023-03-19T21:11:52.987Z,3.48
2023-03-19T21:14:23.454Z,3.42
2023-03-19T21:16:51.902Z,3.35
2023-03-19T21:19:20.272Z,3.28
2023-03-19T21:21:48.490Z,3.22
2023-03-19T21:24:20.517Z,3.17
2023-03-19T21:26:48.815Z,3.13
2023-03-19T21:29:34.788Z,3.06
2023-03-19T21:32:02.782Z,2.99
2023-03-19T21:34:31.116Z,2.93
2023-03-19T21:36:59.280Z,2.89
2023-03-19T21:39:27.403Z,2.83
2023-03-19T21:41:57.189Z,2.80
2023-03-19T21:44:29.685Z,2.78
2023-03-19T21:46:58.063Z,2.78
2023-03-19T21:49:26.422Z,2.76
2023-03-19T21:51:57.027Z,2.72
2023-03-19T21:54:25.048Z,2.67
2023-03-19T21:56:53.485Z,2.60
2023-03-19T21:59:29.484Z,2.55
2023-03-19T22:01:57.889Z,2.49
2023-03-19T22:04:25.886Z,2.45
2023-03-19T22:06:54.496Z,2.43
2023-03-19T22:09:22.756Z,2.42
2023-03-19T22:11:50.914Z,2.41
2023-03-19T22:14:26.972Z,2.38
2023-03-19T22:16:57.080Z,2.35
2023-03-19T22:19:25.876Z,2.33
2023-03-19T22:21:54.101Z,2.31
2023-03-19T22:24:22.217Z,2.30
2023-03-19T22:26:56.419Z,2.30
2023-03-19T22:29:25.652Z,2.29
2023-03-19T22:31:56.139Z,2.30
2023-03-19T22:34:27.715Z,2.32
2023-03-19T22:36:56.740Z,2.30
2023-03-19T22:39:24.843Z,2.28
2023-03-19T22:41:53.108Z,2.25
2023-03-19T22:44:28.100Z,2.20
2023-03-19T22:46:59.582Z,2.18
2023-03-19T22:49:29.866Z,2.15
2023-03-19T22:51:58.710Z,2.10
2023-03-19T22:54:26.821Z,2.08
2023-03-19T22:56:55.302Z,2.07
2023-03-19T22:59:23.641Z,2.07
2023-03-19T23:01:52.088Z,2.05
2023-03-19T23:04:23.160Z,2.03
2023-03-19T23:06:53.524Z,1.99
2023-03-19T23:09:24.184Z,1.95
2023-03-19T23:11:53.666Z,1.92
2023-03-19T23:14:29.590Z,1.90
2023-03-19T23:17:15.700Z,1.88
2023-03-19T23:19:43.907Z,1.87
2023-03-19T23:22:16.588Z,1.84
2023-03-19T23:24:44.857Z,1.85
2023-03-19T23:27:31.168Z,1.85
2023-03-19T23:30:00.997Z,1.83
2023-03-19T23:32:29.102Z,1.81
2023-03-19T23:35:01.454Z,1.79
2023-03-19T23:37:56.514Z,1.77
2023-03-19T23:40:30.109Z,1.74
2023-03-19T23:43:00.207Z,1.72
2023-03-19T23:45:38.406Z,1.68
2023-03-19T23:48:13.933Z,1.64
2023-03-19T23:50:42.148Z,1.59
2023-03-19T23:53:18.754Z,1.56
2023-03-19T23:55:49.597Z,1.53
2023-03-19T23:58:18.623Z,1.51
